createdAt,value
2022-11-13T00:01:22.665Z,100.00
2022-11-13T00:03:51.126Z,100.00
2022-11-13T00:06:20.395Z,100.00
2022-11-13T00:08:49.602Z,100.00
2022-11-13T00:11:20.579Z,100.00
2022-11-13T00:13:49.877Z,100.00
2022-11-13T00:16:22.643Z,100.00
2022-11-13T00:18:51.032Z,100.00
2022-11-13T00:21:21.482Z,100.00
2022-11-13T00:23:50.849Z,100.00
2022-11-13T00:26:21.617Z,100.00
2022-11-13T00:28:55.402Z,100.00
2022-11-13T00:31:25.794Z,100.00
2022-11-13T00:34:14.155Z,100.00
2022-11-13T00:36:42.877Z,100.00
2022-11-13T00:39:11.338Z,100.00
2022-11-13T00:41:39.635Z,100.00
2022-11-13T00:44:08.291Z,100.00
2022-11-13T00:46:38.035Z,100.00
2022-11-13T00:49:06.707Z,100.00
2022-11-13T00:51:35.080Z,100.00
2022-11-13T00:54:03.418Z,100.00
2022-11-13T00:56:31.750Z,100.00
2022-11-13T00:59:00.087Z,100.00
2022-11-13T01:01:28.538Z,100.00
2022-11-13T01:03:58.510Z,100.00
2022-11-13T01:06:29.014Z,100.00
2022-11-13T01:08:59.779Z,100.00
2022-11-13T01:11:30.805Z,100.00
2022-11-13T01:13:59.435Z,100.00
2022-11-13T01:16:29.441Z,100.00
2022-11-13T01:18:59.411Z,100.00
2022-11-13T01:21:29.705Z,100.00
2022-11-13T01:23:58.220Z,100.00
2022-11-13T01:26:28.880Z,100.00
2022-11-13T01:28:59.849Z,100.00
2022-11-13T01:31:31.418Z,100.00
2022-11-13T01:34:01.406Z,100.00
2022-11-13T01:36:30.835Z,100.00
2022-11-13T01:38:59.689Z,100.00
2022-11-13T01:41:31.113Z,100.00
2022-11-13T01:44:00.640Z,100.00
2022-11-13T01:46:32.211Z,100.00
2022-11-13T01:49:16.163Z,100.00
2022-11-13T01:51:51.966Z,100.00
2022-11-13T01:54:26.379Z,100.00
2022-11-13T01:56:55.999Z,100.00
2022-11-13T01:59:28.054Z,100.00
2022-11-13T02:01:57.699Z,100.00
2022-11-13T02:04:29.691Z,100.00
2022-11-13T02:07:01.651Z,100.00
2022-11-13T02:09:35.174Z,100.00
2022-11-13T02:12:04.888Z,100.00
2022-11-13T02:14:34.104Z,100.00
2022-11-13T02:17:09.568Z,100.00
2022-11-13T02:19:44.747Z,100.00
2022-11-13T02:22:21.375Z,100.00
2022-11-13T02:24:54.811Z,100.00
2022-11-13T02:27:30.310Z,100.00
2022-11-13T02:29:58.663Z,100.00
2022-11-13T02:32:26.998Z,100.00
2022-11-13T02:34:55.373Z,100.00
2022-11-13T02:37:23.696Z,100.00
2022-11-13T02:39:53.626Z,100.00
2022-11-13T02:42:21.951Z,100.00
2022-11-13T02:44:50.518Z,100.00
2022-11-13T02:47:18.879Z,100.00
2022-11-13T02:49:47.411Z,100.00
2022-11-13T02:52:15.806Z,100.00
2022-11-13T02:54:44.188Z,100.00
2022-11-13T02:57:13.886Z,100.00
2022-11-13T02:59:42.469Z,100.00
2022-11-13T03:02:11.108Z,100.00
2022-11-13T03:05:10.117Z,100.00
2022-11-13T03:07:27.791Z,100.00
2022-11-13T03:09:56.912Z,100.00
2022-11-13T03:12:26.879Z,100.00
2022-11-13T03:14:55.223Z,100.00
2022-11-13T03:17:23.564Z,100.00
2022-11-13T03:19:51.906Z,100.00
2022-11-13T03:22:20.225Z,100.00
2022-11-13T03:24:48.761Z,100.00
2022-11-13T03:27:17.100Z,100.00
2022-11-13T03:29:46.810Z,100.00
2022-11-13T03:32:15.153Z,100.00
2022-11-13T03:34:43.535Z,100.00
2022-11-13T03:37:11.890Z,100.00
2022-11-13T03:39:40.230Z,100.00
2022-11-13T03:42:08.539Z,100.00
2022-11-13T03:44:36.886Z,100.00
2022-11-13T03:47:06.621Z,100.00
2022-11-13T03:49:34.972Z,100.00
2022-11-13T03:52:03.314Z,100.00
2022-11-13T03:54:31.765Z,100.00
2022-11-13T03:57:00.127Z,100.00
2022-11-13T03:59:28.464Z,100.00
2022-11-13T04:01:56.827Z,100.00
2022-11-13T04:04:26.596Z,100.00
2022-11-13T04:06:54.965Z,100.00
2022-11-13T04:09:23.367Z,100.00
2022-11-13T04:11:51.732Z,100.00
2022-11-13T04:14:20.144Z,100.00
2022-11-13T04:16:48.454Z,100.00
2022-11-13T04:19:16.771Z,100.00
2022-11-13T04:21:46.475Z,100.00
2022-11-13T04:24:14.842Z,100.00
2022-11-13T04:26:43.150Z,100.00
2022-11-13T04:29:11.487Z,100.00
2022-11-13T04:31:39.808Z,100.00
2022-11-13T04:34:09.584Z,100.00
2022-11-13T04:36:37.915Z,100.00
2022-11-13T04:39:08.010Z,100.00
2022-11-13T04:41:55.527Z,100.00
2022-11-13T04:44:24.103Z,100.00
2022-11-13T04:46:52.466Z,100.00
2022-11-13T04:49:20.797Z,100.00
2022-11-13T04:51:49.131Z,100.00
2022-11-13T04:54:22.003Z,100.00
2022-11-13T04:56:52.718Z,100.00
2022-11-13T04:59:21.071Z,100.00
2022-11-13T05:01:49.457Z,100.00
2022-11-13T05:04:18.002Z,100.00
2022-11-13T05:06:46.401Z,100.00
2022-11-13T05:09:15.482Z,100.00
2022-11-13T05:11:45.210Z,100.00
2022-11-13T05:14:14.074Z,100.00
2022-11-13T05:16:42.406Z,100.00
2022-11-13T05:19:10.855Z,100.00
2022-11-13T05:21:40.542Z,100.00
2022-11-13T05:24:11.571Z,100.00
2022-11-13T05:26:40.415Z,100.00
2022-11-13T05:29:10.164Z,100.00
2022-11-13T05:31:38.567Z,100.00
2022-11-13T05:34:07.194Z,100.00
2022-11-13T05:36:35.911Z,100.00
2022-11-13T05:39:04.597Z,100.00
2022-11-13T05:41:33.552Z,100.00
2022-11-13T05:44:01.890Z,100.00
2022-11-13T05:46:31.999Z,100.00
2022-11-13T05:49:02.634Z,100.00
2022-11-13T05:51:33.728Z,100.00
2022-11-13T05:54:03.281Z,100.00
2022-11-13T05:56:35.022Z,100.00
2022-11-13T05:59:05.025Z,100.00
2022-11-13T06:01:39.456Z,100.00
2022-11-13T06:04:09.183Z,100.00
2022-11-13T06:06:37.682Z,100.00
2022-11-13T06:09:07.768Z,100.00
2022-11-13T06:11:36.122Z,100.00
2022-11-13T06:14:04.444Z,100.00
2022-11-13T06:16:39.610Z,100.00
2022-11-13T06:19:10.983Z,100.00
2022-11-13T06:21:41.660Z,100.00
2022-11-13T06:24:13.227Z,100.00
2022-11-13T06:26:42.390Z,100.00
2022-11-13T06:29:14.788Z,100.00
2022-11-13T06:31:44.603Z,100.00
2022-11-13T06:34:12.955Z,100.00
2022-11-13T06:36:41.284Z,100.00
2022-11-13T06:39:10.994Z,100.00
2022-11-13T06:41:40.737Z,100.00
2022-11-13T06:44:09.417Z,100.00
2022-11-13T06:46:37.790Z,100.00
2022-11-13T06:49:07.692Z,100.00
2022-11-13T06:51:36.207Z,100.00
2022-11-13T06:54:04.629Z,100.00
2022-11-13T06:56:32.959Z,100.00
2022-11-13T06:59:01.865Z,100.00
2022-11-13T07:01:31.501Z,100.00
2022-11-13T07:03:59.839Z,100.00
2022-11-13T07:06:29.514Z,100.00
2022-11-13T07:08:57.867Z,100.00
2022-11-13T07:11:28.771Z,100.00
2022-11-13T07:13:57.460Z,100.00
2022-11-13T07:16:34.728Z,100.00
2022-11-13T07:19:12.694Z,100.00
2022-11-13T07:21:42.353Z,100.00
2022-11-13T07:24:15.660Z,100.00
2022-11-13T07:26:45.335Z,100.00
2022-11-13T07:29:13.722Z,100.00
2022-11-13T07:31:42.064Z,100.00
2022-11-13T07:34:10.406Z,100.00
2022-11-13T07:36:38.711Z,100.00
2022-11-13T07:39:08.462Z,100.00
2022-11-13T07:41:36.792Z,100.00
2022-11-13T07:44:08.977Z,100.00
2022-11-13T07:46:38.019Z,100.00
2022-11-13T07:49:06.807Z,100.00
2022-11-13T07:51:35.116Z,100.00
2022-11-13T07:54:03.491Z,100.00
2022-11-13T07:56:33.226Z,100.00
2022-11-13T07:59:01.595Z,100.00
2022-11-13T08:01:29.958Z,100.00
2022-11-13T08:03:58.412Z,100.00
2022-11-13T08:06:28.098Z,100.00
2022-11-13T08:08:56.464Z,100.00
2022-11-13T08:11:24.805Z,100.00
2022-11-13T08:13:55.374Z,100.00
2022-11-13T08:16:24.395Z,100.00
2022-11-13T08:18:53.187Z,100.00
2022-11-13T08:21:21.554Z,100.00
2022-11-13T08:23:50.771Z,100.00
2022-11-13T08:26:19.621Z,100.00
2022-11-13T08:28:48.556Z,100.00
2022-11-13T08:31:18.528Z,100.00
2022-11-13T08:33:46.967Z,100.00
2022-11-13T08:36:15.290Z,100.00
2022-11-13T08:38:43.724Z,100.00
2022-11-13T08:41:12.034Z,100.00
2022-11-13T08:43:40.367Z,100.00
2022-11-13T08:46:08.960Z,100.00
2022-11-13T08:48:38.820Z,100.00
2022-11-13T08:51:07.377Z,100.00
2022-11-13T08:53:35.692Z,100.00
2022-11-13T08:56:04.919Z,100.00
2022-11-13T08:58:33.299Z,100.00
2022-11-13T09:01:01.963Z,100.00
2022-11-13T09:03:30.384Z,100.00
2022-11-13T09:06:00.082Z,100.00
2022-11-13T09:08:28.599Z,100.00
2022-11-13T09:10:56.971Z,100.00
2022-11-13T09:13:25.338Z,100.00
2022-11-13T09:15:53.646Z,100.00
2022-11-13T09:18:21.938Z,100.00
2022-11-13T09:20:50.277Z,100.00
2022-11-13T09:23:20.163Z,100.00
2022-11-13T09:25:49.090Z,100.00
2022-11-13T09:28:17.483Z,100.00
2022-11-13T09:30:46.001Z,94.45
2022-11-13T09:33:15.583Z,83.54
2022-11-13T09:35:44.987Z,83.66
2022-11-13T09:38:16.851Z,92.67
2022-11-13T09:40:55.110Z,91.80
2022-11-13T09:43:36.178Z,90.00
2022-11-13T09:46:10.018Z,88.58
2022-11-13T09:48:41.620Z,87.68
2022-11-13T09:51:16.375Z,76.02
2022-11-13T09:53:44.952Z,82.47
2022-11-13T09:56:29.311Z,74.95
2022-11-13T09:59:08.311Z,76.88
2022-11-13T10:01:52.195Z,82.50
2022-11-13T10:04:30.735Z,82.46
2022-11-13T10:07:15.402Z,75.84
2022-11-13T10:10:03.191Z,81.73
2022-11-13T10:12:33.833Z,82.17
2022-11-13T10:15:05.310Z,83.58
2022-11-13T10:17:39.070Z,84.02
2022-11-13T10:20:15.399Z,85.90
2022-11-13T10:22:51.469Z,90.54
2022-11-13T10:25:23.486Z,91.19
2022-11-13T10:27:58.108Z,94.44
2022-11-13T10:30:26.779Z,87.94
2022-11-13T10:32:55.355Z,93.77
2022-11-13T10:35:45.516Z,92.08
2022-11-13T10:38:25.597Z,92.59
2022-11-13T10:41:04.808Z,95.65
2022-11-13T10:43:35.557Z,96.01
2022-11-13T10:46:07.294Z,96.82
2022-11-13T10:48:37.730Z,97.29
2022-11-13T10:51:20.989Z,96.25
2022-11-13T10:53:49.915Z,95.42
2022-11-13T10:56:33.024Z,96.85
2022-11-13T10:59:05.708Z,97.12
2022-11-13T11:01:34.087Z,98.33
2022-11-13T11:04:05.503Z,98.99
2022-11-13T11:07:12.572Z,93.98
2022-11-13T11:09:29.799Z,86.13
2022-11-13T11:12:18.804Z,93.23
2022-11-13T11:15:22.050Z,97.69
2022-11-13T11:17:55.015Z,94.05
2022-11-13T11:20:42.281Z,94.58
2022-11-13T11:23:26.360Z,97.05
2022-11-13T11:26:00.784Z,99.69
2022-11-13T11:28:36.910Z,96.55
2022-11-13T11:31:21.797Z,94.16
2022-11-13T11:33:54.744Z,90.76
2022-11-13T11:36:33.287Z,93.09
2022-11-13T11:39:16.775Z,91.80
2022-11-13T11:41:53.007Z,89.67
2022-11-13T11:44:32.316Z,81.34
2022-11-13T11:47:01.983Z,91.62
2022-11-13T11:49:31.162Z,96.17
2022-11-13T11:52:15.332Z,99.03
2022-11-13T11:54:47.179Z,97.95
2022-11-13T11:57:36.837Z,100.00
2022-11-13T12:00:11.169Z,97.67
2022-11-13T12:03:17.354Z,80.90
2022-11-13T12:05:57.987Z,94.18
2022-11-13T12:08:37.547Z,98.80
2022-11-13T12:11:15.641Z,93.57
2022-11-13T12:13:54.935Z,95.99
2022-11-13T12:16:31.194Z,92.04
2022-11-13T12:19:13.651Z,89.29
2022-11-13T12:21:52.355Z,92.88
2022-11-13T12:24:46.044Z,96.79
2022-11-13T12:27:26.838Z,99.30
2022-11-13T12:30:11.275Z,99.42
2022-11-13T12:33:10.340Z,84.43
2022-11-13T12:35:40.624Z,94.19
2022-11-13T12:38:22.622Z,89.98
2022-11-13T12:40:58.028Z,84.07
2022-11-13T12:44:00.638Z,82.83
2022-11-13T12:46:40.828Z,86.41
2022-11-13T12:49:33.275Z,84.92
2022-11-13T12:52:06.112Z,84.54
2022-11-13T12:54:37.745Z,81.31
2022-11-13T12:57:27.149Z,77.48
2022-11-13T13:00:11.647Z,86.93
2022-11-13T13:03:09.621Z,78.88
2022-11-13T13:06:13.892Z,76.69
2022-11-13T13:09:04.676Z,77.57
2022-11-13T13:11:44.842Z,90.37
2022-11-13T13:14:48.161Z,92.98
2022-11-13T13:17:21.546Z,85.40
2022-11-13T13:20:01.079Z,89.38
2022-11-13T13:22:32.886Z,82.68
2022-11-13T13:25:07.536Z,74.85
2022-11-13T13:27:40.586Z,71.37
2022-11-13T13:30:22.423Z,69.60
2022-11-13T13:33:07.378Z,69.62
2022-11-13T13:35:43.339Z,77.73
2022-11-13T13:38:23.319Z,81.53
2022-11-13T13:41:17.001Z,79.84
2022-11-13T13:43:58.931Z,85.32
2022-11-13T13:46:31.494Z,80.83
2022-11-13T13:49:06.806Z,80.88
2022-11-13T13:51:41.959Z,79.86
2022-11-13T13:54:18.491Z,88.20
2022-11-13T13:56:48.306Z,78.87
2022-11-13T13:59:20.948Z,73.14
2022-11-13T14:01:58.300Z,71.59
2022-11-13T14:04:29.934Z,70.47
2022-11-13T14:07:01.252Z,67.79
2022-11-13T14:09:31.807Z,71.73
2022-11-13T14:12:09.333Z,69.38
2022-11-13T14:14:41.031Z,68.76
2022-11-13T14:17:12.175Z,69.02
2022-11-13T14:19:40.835Z,69.10
2022-11-13T14:22:13.338Z,76.69
2022-11-13T14:24:49.313Z,75.82
2022-11-13T14:27:23.546Z,88.89
2022-11-13T14:29:54.985Z,81.38
2022-11-13T14:32:28.827Z,95.28
2022-11-13T14:35:02.157Z,93.93
2022-11-13T14:37:37.177Z,75.95
2022-11-13T14:40:16.375Z,84.25
2022-11-13T14:42:50.468Z,89.99
2022-11-13T14:45:22.523Z,90.33
2022-11-13T14:48:02.763Z,90.02
2022-11-13T14:50:33.587Z,82.89
2022-11-13T14:53:04.494Z,91.00
2022-11-13T14:55:37.514Z,92.94
2022-11-13T14:58:07.336Z,90.89
2022-11-13T15:00:38.333Z,82.73
2022-11-13T15:03:07.701Z,93.11
2022-11-13T15:05:36.087Z,92.55
2022-11-13T15:08:04.565Z,96.14
2022-11-13T15:10:33.256Z,92.36
2022-11-13T15:13:02.286Z,99.34
2022-11-13T15:15:33.851Z,99.17
2022-11-13T15:18:04.018Z,100.00
2022-11-13T15:20:32.942Z,100.00
2022-11-13T15:23:02.449Z,100.00
2022-11-13T15:25:30.845Z,100.00
2022-11-13T15:27:59.181Z,100.00
2022-11-13T15:30:27.568Z,99.21
2022-11-13T15:32:57.446Z,100.00
2022-11-13T15:35:26.725Z,98.83
2022-11-13T15:37:55.029Z,97.58
2022-11-13T15:40:23.400Z,99.11
2022-11-13T15:42:51.873Z,99.39
2022-11-13T15:45:20.216Z,98.21
2022-11-13T15:47:48.542Z,100.00
2022-11-13T15:50:18.803Z,100.00
2022-11-13T15:52:50.756Z,100.00
2022-11-13T15:55:28.700Z,100.00
2022-11-13T15:57:58.480Z,100.00
2022-11-13T16:00:29.478Z,100.00
2022-11-13T16:02:58.777Z,100.00
2022-11-13T16:05:29.814Z,100.00
2022-11-13T16:07:58.455Z,100.00
2022-11-13T16:10:27.098Z,100.00
2022-11-13T16:12:55.685Z,99.89
2022-11-13T16:15:24.060Z,100.00
2022-11-13T16:17:58.422Z,100.00
2022-11-13T16:20:28.154Z,100.00
2022-11-13T16:22:56.472Z,100.00
2022-11-13T16:25:25.267Z,100.00
2022-11-13T16:27:53.968Z,100.00
2022-11-13T16:30:24.929Z,100.00
2022-11-13T16:32:53.305Z,100.00
2022-11-13T16:35:22.192Z,100.00
2022-11-13T16:37:51.894Z,100.00
2022-11-13T16:40:23.909Z,100.00
2022-11-13T16:42:52.726Z,100.00
2022-11-13T16:45:22.469Z,100.00
2022-11-13T16:47:51.488Z,100.00
2022-11-13T16:50:23.894Z,100.00
2022-11-13T16:52:54.027Z,100.00
2022-11-13T16:55:22.427Z,100.00
2022-11-13T16:57:50.767Z,100.00
2022-11-13T17:00:20.844Z,100.00
2022-11-13T17:02:52.664Z,100.00
2022-11-13T17:05:24.027Z,100.00
2022-11-13T17:07:59.519Z,100.00
2022-11-13T17:10:32.616Z,100.00
2022-11-13T17:13:01.579Z,100.00
2022-11-13T17:15:29.942Z,100.00
2022-11-13T17:17:59.636Z,100.00
2022-11-13T17:20:28.240Z,100.00
2022-11-13T17:22:57.914Z,100.00
2022-11-13T17:25:28.133Z,100.00
2022-11-13T17:27:56.550Z,100.00
2022-11-13T17:30:25.297Z,100.00
2022-11-13T17:32:53.629Z,100.00
2022-11-13T17:35:22.039Z,100.00
2022-11-13T17:37:50.374Z,100.00
2022-11-13T17:40:20.199Z,100.00
2022-11-13T17:42:49.531Z,100.00
2022-11-13T17:45:18.132Z,100.00
2022-11-13T17:47:46.441Z,100.00
2022-11-13T17:50:15.214Z,100.00
2022-11-13T17:52:43.604Z,100.00
2022-11-13T17:55:14.068Z,100.00
2022-11-13T17:57:44.476Z,100.00
2022-11-13T18:00:13.939Z,100.00
2022-11-13T18:02:42.307Z,100.00
2022-11-13T18:05:10.962Z,100.00
2022-11-13T18:07:40.222Z,100.00
2022-11-13T18:10:10.980Z,100.00
2022-11-13T18:12:39.540Z,100.00
2022-11-13T18:15:10.172Z,100.00
2022-11-13T18:17:38.493Z,100.00
2022-11-13T18:20:08.243Z,100.00
2022-11-13T18:22:36.677Z,100.00
2022-11-13T18:25:05.637Z,100.00
2022-11-13T18:27:33.972Z,100.00
2022-11-13T18:30:02.367Z,100.00
2022-11-13T18:32:32.081Z,100.00
2022-11-13T18:35:00.455Z,100.00
2022-11-13T18:37:28.800Z,100.00
2022-11-13T18:39:58.430Z,100.00
2022-11-13T18:42:26.962Z,100.00
2022-11-13T18:44:55.548Z,100.00
2022-11-13T18:47:23.867Z,100.00
2022-11-13T18:49:53.968Z,100.00
2022-11-13T18:52:22.308Z,100.00
2022-11-13T18:54:50.662Z,100.00
2022-11-13T18:57:18.972Z,100.00
2022-11-13T18:59:47.295Z,100.00
2022-11-13T19:02:15.702Z,100.00
2022-11-13T19:04:44.689Z,100.00
2022-11-13T19:07:14.456Z,100.00
2022-11-13T19:09:46.058Z,100.00
2022-11-13T19:12:14.415Z,100.00
2022-11-13T19:14:42.895Z,100.00
2022-11-13T19:17:11.246Z,100.00
2022-11-13T19:19:42.361Z,100.00
2022-11-13T19:22:10.761Z,100.00
2022-11-13T19:24:40.571Z,100.00
2022-11-13T19:27:08.895Z,100.00
2022-11-13T19:29:37.264Z,100.00
2022-11-13T19:32:06.570Z,100.00
2022-11-13T19:34:34.934Z,100.00
2022-11-13T19:37:03.758Z,100.00
2022-11-13T19:39:32.135Z,100.00
2022-11-13T19:42:01.805Z,100.00
2022-11-13T19:44:30.177Z,100.00
2022-11-13T19:46:58.562Z,100.00
2022-11-13T19:49:27.393Z,100.00
2022-11-13T19:51:55.773Z,100.00
2022-11-13T19:54:24.108Z,100.00
2022-11-13T19:56:52.430Z,100.00
2022-11-13T19:59:22.107Z,100.00
2022-11-13T20:01:50.567Z,100.00
2022-11-13T20:04:19.020Z,100.00
2022-11-13T20:06:47.455Z,100.00
2022-11-13T20:09:15.828Z,100.00
2022-11-13T20:11:45.265Z,100.00
2022-11-13T20:14:14.149Z,100.00
2022-11-13T20:16:43.878Z,100.00
2022-11-13T20:19:12.203Z,100.00
2022-11-13T20:21:40.954Z,100.00
2022-11-13T20:24:11.469Z,100.00
2022-11-13T20:26:39.865Z,100.00
2022-11-13T20:29:08.174Z,100.00
2022-11-13T20:31:36.520Z,100.00
2022-11-13T20:34:06.352Z,100.00
2022-11-13T20:36:34.727Z,100.00
2022-11-13T20:39:08.126Z,100.00
2022-11-13T20:41:37.977Z,100.00
2022-11-13T20:44:06.931Z,100.00
2022-11-13T20:46:35.288Z,100.00
2022-11-13T20:49:05.483Z,100.00
2022-11-13T20:51:33.839Z,100.00
2022-11-13T20:54:02.227Z,100.00
2022-11-13T20:56:30.602Z,100.00
2022-11-13T20:58:59.108Z,100.00
2022-11-13T21:01:28.015Z,100.00
2022-11-13T21:03:59.460Z,100.00
2022-11-13T21:06:29.268Z,100.00
2022-11-13T21:08:58.123Z,100.00
2022-11-13T21:11:26.972Z,100.00
2022-11-13T21:13:57.522Z,100.00
2022-11-13T21:16:28.107Z,100.00
2022-11-13T21:18:57.527Z,100.00
2022-11-13T21:21:29.025Z,100.00
2022-11-13T21:23:58.851Z,100.00
2022-11-13T21:26:28.442Z,100.00
2022-11-13T21:28:57.752Z,100.00
2022-11-13T21:31:26.128Z,100.00
2022-11-13T21:33:55.052Z,100.00
2022-11-13T21:36:27.313Z,100.00
2022-11-13T21:38:57.581Z,100.00
2022-11-13T21:41:26.694Z,100.00
2022-11-13T21:43:58.948Z,100.00
2022-11-13T21:46:28.873Z,100.00
2022-11-13T21:48:59.733Z,100.00
2022-11-13T21:51:28.394Z,100.00
2022-11-13T21:53:58.736Z,100.00
2022-11-13T21:56:29.062Z,100.00
2022-11-13T21:58:57.797Z,100.00
2022-11-13T22:01:26.857Z,100.00
2022-11-13T22:03:55.682Z,100.00
2022-11-13T22:06:26.869Z,100.00
2022-11-13T22:08:58.572Z,100.00
2022-11-13T22:11:29.182Z,100.00
2022-11-13T22:13:58.014Z,100.00
2022-11-13T22:16:28.603Z,100.00
2022-11-13T22:18:59.043Z,100.00
2022-11-13T22:21:29.340Z,100.00
2022-11-13T22:24:00.107Z,100.00
2022-11-13T22:26:31.716Z,100.00
2022-11-13T22:29:01.434Z,100.00
2022-11-13T22:31:31.798Z,100.00
2022-11-13T22:34:00.821Z,100.00
2022-11-13T22:36:31.814Z,100.00
2022-11-13T22:39:02.324Z,100.00
2022-11-13T22:41:32.998Z,100.00
2022-11-13T22:44:04.135Z,100.00
2022-11-13T22:46:35.482Z,100.00
2022-11-13T22:49:05.688Z,100.00
2022-11-13T22:51:38.093Z,100.00
2022-11-13T22:54:12.477Z,100.00
2022-11-13T22:56:42.263Z,100.00
2022-11-13T22:59:13.312Z,100.00
2022-11-13T23:01:43.949Z,100.00
2022-11-13T23:04:15.144Z,100.00
2022-11-13T23:06:44.031Z,100.00
2022-11-13T23:09:13.786Z,100.00
2022-11-13T23:11:44.019Z,100.00
2022-11-13T23:14:15.820Z,100.00
2022-11-13T23:16:44.227Z,100.00
2022-11-13T23:19:12.932Z,100.00
2022-11-13T23:21:41.431Z,100.00
2022-11-13T23:24:13.263Z,100.00
2022-11-13T23:26:41.593Z,100.00
2022-11-13T23:29:09.983Z,100.00
2022-11-13T23:31:38.318Z,100.00
2022-11-13T23:34:06.713Z,100.00
2022-11-13T23:36:35.095Z,100.00
2022-11-13T23:39:03.516Z,100.00
2022-11-13T23:41:33.334Z,100.00
2022-11-13T23:44:08.681Z,100.00
2022-11-13T23:46:38.031Z,100.00
2022-11-13T23:49:06.390Z,100.00
2022-11-13T23:51:34.730Z,100.00
2022-11-13T23:54:03.243Z,100.00
2022-11-13T23:56:32.921Z,100.00
2022-11-13T23:59:01.263Z,100.00
